createdAt,value
2022-08-07T00:01:43.651Z,24.25
2022-08-07T00:04:09.547Z,24.03
2022-08-07T00:06:45.640Z,23.95
2022-08-07T00:09:21.345Z,23.87
2022-08-07T00:11:55.303Z,23.71
2022-08-07T00:14:30.223Z,23.44
2022-08-07T00:17:00.310Z,23.40
2022-08-07T00:20:00.259Z,23.32
2022-08-07T00:22:24.952Z,23.36
2022-08-07T00:25:04.505Z,23.39
2022-08-07T00:27:51.651Z,23.41
2022-08-07T00:30:26.800Z,23.42
2022-08-07T00:32:56.332Z,23.39
2022-08-07T00:35:23.168Z,23.45
2022-08-07T00:37:49.865Z,23.46
2022-08-07T00:40:36.574Z,23.50
2022-08-07T00:43:04.347Z,23.63
2022-08-07T00:45:36.780Z,23.68
2022-08-07T00:48:09.411Z,23.67
2022-08-07T00:50:46.161Z,23.54
2022-08-07T00:53:21.587Z,23.55
2022-08-07T00:56:03.003Z,23.66
2022-08-07T00:58:31.519Z,23.73
2022-08-07T01:00:58.837Z,23.66
2022-08-07T01:03:56.694Z,23.51
2022-08-07T01:06:12.971Z,23.41
2022-08-07T01:08:43.149Z,23.23
2022-08-07T01:12:04.901Z,23.18
2022-08-07T01:14:05.109Z,23.05
2022-08-07T01:16:32.062Z,23.11
2022-08-07T01:18:58.935Z,23.05
2022-08-07T01:21:27.544Z,22.96
2022-08-07T01:23:57.286Z,22.93
2022-08-07T01:26:26.114Z,22.98
2022-08-07T01:28:53.936Z,23.05
2022-08-07T01:31:21.906Z,23.04
2022-08-07T01:33:55.835Z,23.05
2022-08-07T01:36:33.460Z,22.87
2022-08-07T01:39:01.086Z,22.67
2022-08-07T01:41:28.030Z,22.55
2022-08-07T01:43:54.942Z,22.34
2022-08-07T01:46:21.619Z,22.25
2022-08-07T01:48:48.836Z,22.24
2022-08-07T01:52:04.241Z,22.25
2022-08-07T01:54:33.128Z,22.28
2022-08-07T01:57:27.565Z,22.33
2022-08-07T02:00:00.028Z,22.45
2022-08-07T02:03:11.947Z,22.53
2022-08-07T02:05:59.322Z,22.62
2022-08-07T02:08:29.825Z,22.60
2022-08-07T02:11:00.506Z,22.60
2022-08-07T02:13:58.011Z,22.65
2022-08-07T02:16:28.579Z,22.72
2022-08-07T02:20:05.552Z,22.77
2022-08-07T02:21:55.891Z,22.82
2022-08-07T02:24:25.024Z,22.86
2022-08-07T02:26:52.962Z,22.88
2022-08-07T02:29:21.892Z,22.83
2022-08-07T02:31:50.022Z,22.71
2022-08-07T02:34:18.907Z,22.74
2022-08-07T02:36:46.071Z,22.61
2022-08-07T02:39:17.194Z,22.58
2022-08-07T02:42:01.971Z,22.56
2022-08-07T02:44:34.371Z,22.72
2022-08-07T02:47:03.502Z,22.80
2022-08-07T02:49:57.628Z,22.78
2022-08-07T02:52:31.990Z,22.82
2022-08-07T02:55:03.701Z,22.80
2022-08-07T02:57:34.936Z,22.82
2022-08-07T03:00:05.082Z,22.73
2022-08-07T03:02:54.111Z,22.59
2022-08-07T03:05:23.136Z,22.66
2022-08-07T03:08:07.683Z,22.72
2022-08-07T03:10:46.155Z,22.68
2022-08-07T03:13:19.781Z,22.72
2022-08-07T03:15:56.413Z,22.85
2022-08-07T03:18:34.844Z,22.95
2022-08-07T03:21:04.984Z,23.00
2022-08-07T03:24:19.560Z,22.98
2022-08-07T03:26:30.014Z,22.94
2022-08-07T03:28:58.546Z,22.99
2022-08-07T03:31:42.271Z,23.07
2022-08-07T03:34:18.499Z,23.12
2022-08-07T03:36:53.003Z,23.09
2022-08-07T03:39:46.394Z,23.12
2022-08-07T03:42:08.488Z,23.05
2022-08-07T03:44:37.647Z,23.05
2022-08-07T03:47:13.967Z,23.10
2022-08-07T03:49:48.022Z,23.09
2022-08-07T03:52:26.631Z,23.16
2022-08-07T03:55:06.095Z,23.21
2022-08-07T03:58:34.612Z,23.19
2022-08-07T04:00:30.568Z,23.30
2022-08-07T04:03:03.940Z,23.32
2022-08-07T04:05:39.742Z,23.37
2022-08-07T04:08:16.331Z,23.37
2022-08-07T04:10:53.912Z,23.24
2022-08-07T04:14:09.545Z,22.99
2022-08-07T04:16:31.597Z,22.83
2022-08-07T04:19:01.779Z,22.80
2022-08-07T04:21:31.959Z,22.84
2022-08-07T04:24:05.793Z,22.88
2022-08-07T04:26:34.741Z,22.87
2022-08-07T04:29:03.048Z,23.02
2022-08-07T04:31:39.145Z,23.10
2022-08-07T04:34:24.193Z,23.04
2022-08-07T04:37:00.829Z,23.02
2022-08-07T04:39:29.312Z,23.05
2022-08-07T04:42:04.105Z,23.12
2022-08-07T04:44:30.963Z,23.15
2022-08-07T04:47:23.607Z,23.20
2022-08-07T04:50:10.989Z,23.21
2022-08-07T04:52:53.625Z,23.20
2022-08-07T04:58:13.160Z,23.20
2022-08-07T04:59:17.769Z,23.22
2022-08-07T05:01:45.211Z,23.36
2022-08-07T05:04:18.613Z,23.46
2022-08-07T05:06:56.526Z,23.51
2022-08-07T05:09:45.335Z,23.48
2022-08-07T05:12:27.268Z,23.52
2022-08-07T05:15:21.696Z,23.64
2022-08-07T05:17:58.441Z,23.79
2022-08-07T05:20:35.077Z,23.82
2022-08-07T05:23:15.862Z,23.91
2022-08-07T05:26:10.688Z,23.87
2022-08-07T05:28:33.389Z,23.75
2022-08-07T05:31:01.528Z,23.61
2022-08-07T05:33:31.874Z,23.13
2022-08-07T05:36:04.555Z,22.80
2022-08-07T05:38:59.411Z,22.55
2022-08-07T05:41:21.896Z,22.46
2022-08-07T05:44:09.004Z,22.30
2022-08-07T05:46:40.249Z,22.18
2022-08-07T05:49:12.377Z,22.00
2022-08-07T05:51:41.291Z,21.99
2022-08-07T05:54:29.792Z,21.95
2022-08-07T05:56:57.227Z,21.88
2022-08-07T05:59:27.474Z,21.87
2022-08-07T06:01:57.417Z,21.80
2022-08-07T06:04:30.028Z,21.74
2022-08-07T06:07:03.735Z,21.74
2022-08-07T06:10:04.369Z,21.77
2022-08-07T06:12:17.738Z,21.82
2022-08-07T06:14:50.121Z,21.81
2022-08-07T06:17:19.313Z,21.81
2022-08-07T06:20:03.281Z,21.78
2022-08-07T06:22:38.724Z,21.79
2022-08-07T06:25:10.008Z,21.83
2022-08-07T06:28:00.582Z,21.80
2022-08-07T06:30:35.431Z,21.68
2022-08-07T06:33:03.840Z,21.74
2022-08-07T06:35:45.893Z,21.73
2022-08-07T06:38:20.525Z,21.73
2022-08-07T06:40:50.189Z,21.75
2022-08-07T06:43:21.419Z,21.82
2022-08-07T06:45:49.192Z,21.90
2022-08-07T06:48:16.204Z,21.78
2022-08-07T06:50:52.800Z,21.71
2022-08-07T06:55:27.092Z,21.73
2022-08-07T06:56:15.499Z,21.70
2022-08-07T07:00:13.502Z,21.57
2022-08-07T07:01:42.054Z,21.51
2022-08-07T07:04:28.488Z,21.56
2022-08-07T07:07:00.972Z,21.55
2022-08-07T07:09:31.222Z,21.55
2022-08-07T07:12:19.596Z,21.55
2022-08-07T07:15:00.376Z,21.62
2022-08-07T07:17:50.500Z,21.66
2022-08-07T07:20:28.367Z,21.64
2022-08-07T07:24:10.106Z,21.52
2022-08-07T07:29:40.185Z,21.38
2022-08-07T07:31:51.489Z,21.29
2022-08-07T07:34:22.378Z,21.38
2022-08-07T07:37:14.489Z,21.40
2022-08-07T07:39:54.477Z,21.35
2022-08-07T07:42:32.617Z,21.40
2022-08-07T07:45:02.053Z,21.48
2022-08-07T07:47:29.671Z,21.41
2022-08-07T07:50:35.275Z,21.64
2022-08-07T07:52:46.915Z,21.73
2022-08-07T07:55:15.580Z,21.72
2022-08-07T07:57:52.104Z,21.78
2022-08-07T08:00:31.254Z,21.88
2022-08-07T08:04:06.343Z,22.00
2022-08-07T08:06:13.210Z,22.06
2022-08-07T08:08:42.120Z,22.12
2022-08-07T08:11:16.073Z,22.09
2022-08-07T08:13:53.208Z,22.14
2022-08-07T08:16:26.251Z,22.23
2022-08-07T08:18:58.269Z,22.30
2022-08-07T08:21:58.599Z,22.36
2022-08-07T08:25:04.433Z,22.37
2022-08-07T08:27:44.025Z,22.46
2022-08-07T08:30:25.565Z,22.49
2022-08-07T08:33:01.656Z,22.58
2022-08-07T08:35:39.341Z,22.63
2022-08-07T08:38:16.355Z,22.66
2022-08-07T08:40:49.608Z,22.67
2022-08-07T08:43:42.943Z,22.71
2022-08-07T08:46:41.191Z,22.76
2022-08-07T08:49:32.910Z,22.87
2022-08-07T08:52:40.643Z,22.96
2022-08-07T08:55:58.351Z,23.00
2022-08-07T08:58:35.783Z,23.02
2022-08-07T09:01:18.316Z,23.12
2022-08-07T09:03:55.898Z,23.16
2022-08-07T09:06:38.204Z,23.22
2022-08-07T09:09:23.703Z,23.05
2022-08-07T09:12:32.264Z,22.95
2022-08-07T09:16:21.523Z,22.99
2022-08-07T09:18:47.286Z,22.98
2022-08-07T09:22:10.110Z,23.04
2022-08-07T09:24:58.844Z,23.12
2022-08-07T09:27:59.590Z,23.10
2022-08-07T09:30:37.293Z,22.92
2022-08-07T09:33:16.868Z,22.81
2022-08-07T09:36:09.651Z,22.72
2022-08-07T09:39:27.350Z,22.63
2022-08-07T09:42:17.020Z,22.55
2022-08-07T09:47:23.554Z,22.72
2022-08-07T09:48:15.124Z,22.68
2022-08-07T09:52:15.459Z,22.85
2022-08-07T09:54:40.240Z,22.90
2022-08-07T09:57:21.809Z,23.16
2022-08-07T10:00:14.432Z,23.39
2022-08-07T10:02:55.719Z,23.54
2022-08-07T10:06:12.059Z,23.74
2022-08-07T10:09:23.833Z,23.80
2022-08-07T10:12:21.702Z,23.93
2022-08-07T10:15:05.349Z,23.98
2022-08-07T10:18:01.103Z,24.02
2022-08-07T10:20:39.080Z,24.11
2022-08-07T10:23:16.984Z,24.32
2022-08-07T10:26:24.717Z,24.59
2022-08-07T10:28:59.114Z,24.83
2022-08-07T10:31:42.186Z,25.00
2022-08-07T10:34:32.319Z,25.18
2022-08-07T10:37:14.668Z,25.25
2022-08-07T10:40:09.381Z,25.31
2022-08-07T10:43:00.481Z,25.60
2022-08-07T10:45:45.084Z,25.74
2022-08-07T10:48:51.190Z,25.98
2022-08-07T10:51:39.034Z,26.13
2022-08-07T10:54:40.959Z,26.27
2022-08-07T10:57:34.537Z,26.32
2022-08-07T11:00:09.674Z,26.21
2022-08-07T11:03:12.737Z,26.50
2022-08-07T11:05:58.546Z,26.55
2022-08-07T11:08:43.422Z,26.78
2022-08-07T11:11:30.930Z,26.91
2022-08-07T11:14:46.244Z,26.81
2022-08-07T11:17:13.520Z,26.77
2022-08-07T11:19:55.853Z,27.07
2022-08-07T11:22:32.487Z,27.16
2022-08-07T11:25:18.504Z,27.43
2022-08-07T11:28:03.208Z,27.85
2022-08-07T11:31:08.895Z,27.96
2022-08-07T11:34:10.953Z,27.48
2022-08-07T11:36:56.287Z,27.13
2022-08-07T11:39:59.894Z,27.28
2022-08-07T11:42:49.060Z,27.97
2022-08-07T11:45:36.091Z,27.89
2022-08-07T11:48:30.032Z,28.10
2022-08-07T11:51:02.843Z,28.79
2022-08-07T11:53:43.228Z,28.36
2022-08-07T11:56:38.106Z,28.75
2022-08-07T12:00:11.796Z,29.17
2022-08-07T12:02:32.096Z,29.13
2022-08-07T12:05:15.358Z,29.42
2022-08-07T12:08:25.815Z,29.36
2022-08-07T12:11:20.850Z,29.50
2022-08-07T12:14:04.216Z,29.34
2022-08-07T12:16:55.969Z,29.30
2022-08-07T12:20:03.321Z,29.17
2022-08-07T12:23:10.132Z,29.47
2022-08-07T12:26:21.708Z,29.42
2022-08-07T12:28:56.710Z,29.61
2022-08-07T12:32:02.503Z,29.36
2022-08-07T12:34:30.335Z,29.50
2022-08-07T12:36:58.805Z,29.88
2022-08-07T12:39:44.192Z,29.96
2022-08-07T12:42:27.160Z,29.48
2022-08-07T12:44:58.622Z,29.48
2022-08-07T12:47:44.005Z,29.51
2022-08-07T12:50:39.126Z,29.77
2022-08-07T12:54:02.895Z,29.53
2022-08-07T12:56:39.514Z,29.52
2022-08-07T12:59:08.315Z,29.90
2022-08-07T13:02:02.874Z,29.60
2022-08-07T13:05:01.498Z,29.75
2022-08-07T13:08:14.442Z,30.06
2022-08-07T13:10:52.658Z,29.85
2022-08-07T13:13:46.809Z,29.99
2022-08-07T13:16:25.095Z,30.30
2022-08-07T13:19:21.910Z,30.29
2022-08-07T13:22:20.044Z,29.89
2022-08-07T13:25:00.501Z,29.95
2022-08-07T13:27:33.373Z,29.94
2022-08-07T13:30:19.654Z,30.25
2022-08-07T13:34:14.495Z,30.13
2022-08-07T13:36:25.893Z,29.91
2022-08-07T13:40:33.117Z,29.98
2022-08-07T13:42:21.720Z,30.11
2022-08-07T13:45:11.448Z,29.98
2022-08-07T13:48:06.171Z,30.25
2022-08-07T13:50:44.040Z,30.31
2022-08-07T13:53:21.919Z,30.19
2022-08-07T13:55:54.605Z,30.24
2022-08-07T13:58:56.073Z,30.24
2022-08-07T14:01:26.334Z,30.35
2022-08-07T14:04:06.790Z,30.43
2022-08-07T14:06:41.822Z,30.45
2022-08-07T14:09:17.238Z,30.54
2022-08-07T14:12:07.331Z,30.48
2022-08-07T14:14:51.391Z,30.17
2022-08-07T14:18:12.980Z,30.01
2022-08-07T14:20:42.383Z,30.35
2022-08-07T14:23:58.975Z,30.41
2022-08-07T14:26:28.106Z,30.37
2022-08-07T14:29:06.028Z,30.36
2022-08-07T14:31:42.927Z,30.23
2022-08-07T14:34:29.259Z,30.24
2022-08-07T14:36:57.832Z,30.33
2022-08-07T14:40:15.466Z,30.11
2022-08-07T14:42:18.862Z,30.00
2022-08-07T14:44:52.653Z,30.00
2022-08-07T14:47:21.042Z,30.08
2022-08-07T14:49:58.396Z,30.19
2022-08-07T14:52:38.528Z,30.07
2022-08-07T14:55:06.834Z,30.09
2022-08-07T14:57:58.084Z,30.01
2022-08-07T15:00:29.806Z,30.13
2022-08-07T15:02:59.952Z,30.31
2022-08-07T15:05:30.330Z,30.53
2022-08-07T15:08:00.120Z,30.42
2022-08-07T15:10:29.850Z,30.63
2022-08-07T15:13:00.884Z,30.54
2022-08-07T15:15:52.397Z,30.64
2022-08-07T15:25:16.169Z,30.64
2022-08-07T15:27:23.693Z,30.78
2022-08-07T15:32:51.081Z,30.76
2022-08-07T15:36:01.970Z,30.87
2022-08-07T15:38:30.754Z,30.79
2022-08-07T15:41:24.214Z,30.72
2022-08-07T15:44:21.282Z,30.41
2022-08-07T15:47:08.948Z,30.37
2022-08-07T15:52:35.473Z,30.27
2022-08-07T15:55:08.875Z,30.27
2022-08-07T15:57:48.367Z,30.20
2022-08-07T16:00:32.004Z,30.40
2022-08-07T16:03:21.835Z,30.43
2022-08-07T16:05:58.943Z,30.12
2022-08-07T16:08:33.399Z,30.12
2022-08-07T16:11:26.781Z,30.12
2022-08-07T16:14:26.723Z,29.73
2022-08-07T16:18:02.215Z,29.72
2022-08-07T16:20:33.406Z,29.95
2022-08-07T16:23:53.005Z,29.95
2022-08-07T16:27:00.664Z,29.90
2022-08-07T16:30:11.880Z,29.74
2022-08-07T16:32:54.131Z,29.66
2022-08-07T16:35:52.069Z,29.51
2022-08-07T16:39:01.167Z,29.21
2022-08-07T16:41:54.417Z,29.17
2022-08-07T16:45:13.996Z,29.15
2022-08-07T16:47:58.682Z,29.08
2022-08-07T16:51:20.589Z,29.13
2022-08-07T16:54:06.140Z,29.14
2022-08-07T16:56:53.619Z,29.17
2022-08-07T16:59:46.377Z,29.14
2022-08-07T17:02:53.025Z,29.21
2022-08-07T17:06:19.247Z,29.22
2022-08-07T17:08:09.038Z,29.22
2022-08-07T17:10:54.637Z,29.24
2022-08-07T17:13:41.408Z,29.19
2022-08-07T17:16:29.292Z,29.27
2022-08-07T17:20:00.371Z,29.26
2022-08-07T17:22:19.266Z,29.20
2022-08-07T17:25:52.325Z,29.16
2022-08-07T17:28:31.459Z,29.21
2022-08-07T17:31:20.946Z,29.13
2022-08-07T17:34:15.601Z,29.13
2022-08-07T17:37:08.958Z,29.04
2022-08-07T17:40:05.565Z,28.97
2022-08-07T17:42:59.214Z,28.91
2022-08-07T17:45:37.529Z,28.80
2022-08-07T17:48:15.696Z,28.73
2022-08-07T17:51:16.286Z,28.61
2022-08-07T17:54:11.535Z,28.56
2022-08-07T17:56:49.759Z,28.46
2022-08-07T17:59:39.019Z,28.40
2022-08-07T18:02:15.438Z,28.32
2022-08-07T18:04:53.482Z,28.26
2022-08-07T18:07:35.479Z,28.24
2022-08-07T18:10:28.627Z,28.16
2022-08-07T18:13:23.093Z,28.02
2022-08-07T18:16:04.654Z,27.95
2022-08-07T18:21:04.248Z,27.87
2022-08-07T18:21:55.130Z,27.80
2022-08-07T18:24:34.457Z,27.73
2022-08-07T18:27:17.395Z,27.65
2022-08-07T18:30:07.864Z,27.58
2022-08-07T18:32:47.436Z,27.54
2022-08-07T18:35:51.789Z,27.47
2022-08-07T18:38:57.383Z,27.39
2022-08-07T18:41:54.220Z,27.31
2022-08-07T18:45:44.168Z,27.27
2022-08-07T18:47:50.609Z,27.19
2022-08-07T18:50:47.026Z,27.11
2022-08-07T18:53:16.617Z,27.06
2022-08-07T18:56:01.872Z,26.97
2022-08-07T18:58:43.181Z,26.95
2022-08-07T19:02:19.350Z,26.93
2022-08-07T19:05:09.649Z,26.87
2022-08-07T19:08:31.947Z,26.81
2022-08-07T19:11:35.687Z,26.66
2022-08-07T19:14:11.630Z,26.49
2022-08-07T19:17:06.869Z,26.43
2022-08-07T19:19:55.680Z,26.34
2022-08-07T19:22:30.588Z,26.22
2022-08-07T19:24:58.474Z,26.13
2022-08-07T19:28:57.314Z,26.08
2022-08-07T19:31:03.258Z,26.05
2022-08-07T19:33:13.266Z,26.02
2022-08-07T19:35:46.768Z,25.88
2022-08-07T19:38:17.679Z,25.83
2022-08-07T19:40:49.337Z,25.74
2022-08-07T19:43:50.097Z,25.63
2022-08-07T19:46:29.828Z,25.46
2022-08-07T19:49:11.898Z,25.32
2022-08-07T19:51:51.809Z,25.26
2022-08-07T19:54:32.313Z,25.19
2022-08-07T19:58:04.472Z,25.04
2022-08-07T20:00:10.235Z,25.00
2022-08-07T20:02:52.206Z,24.98
2022-08-07T20:05:28.108Z,24.98
2022-08-07T20:08:01.988Z,24.88
2022-08-07T20:10:38.116Z,24.72
2022-08-07T20:13:26.910Z,24.66
2022-08-07T20:16:00.550Z,24.61
2022-08-07T20:18:32.607Z,24.56
2022-08-07T20:21:02.248Z,24.49
2022-08-07T20:23:43.165Z,24.44
2022-08-07T20:26:15.341Z,24.26
2022-08-07T20:28:59.206Z,24.02
2022-08-07T20:31:28.819Z,23.87
2022-08-07T20:33:58.315Z,23.83
2022-08-07T20:36:28.353Z,23.80
2022-08-07T20:39:00.902Z,23.78
2022-08-07T20:41:50.807Z,23.74
2022-08-07T20:44:20.454Z,23.73
2022-08-07T20:47:05.786Z,23.74
2022-08-07T20:50:00.721Z,23.77
2022-08-07T20:52:51.266Z,23.73
2022-08-07T20:55:24.902Z,23.65
2022-08-07T20:58:03.315Z,23.67
2022-08-07T21:00:42.586Z,23.69
2022-08-07T21:03:15.584Z,23.74
2022-08-07T21:05:54.796Z,23.81
2022-08-07T21:08:37.559Z,23.85
2022-08-07T21:11:10.686Z,23.88
2022-08-07T21:13:43.899Z,23.92
2022-08-07T21:16:33.344Z,23.94
2022-08-07T21:19:01.161Z,23.88
2022-08-07T21:21:33.288Z,23.87
2022-08-07T21:24:28.647Z,23.86
2022-08-07T21:27:39.803Z,23.84
2022-08-07T21:30:16.960Z,23.82
2022-08-07T21:33:02.164Z,23.81
2022-08-07T21:36:03.843Z,23.80
2022-08-07T21:38:49.803Z,23.78
2022-08-07T21:41:37.951Z,23.62
2022-08-07T21:44:28.343Z,23.54
2022-08-07T21:47:07.493Z,23.44
2022-08-07T21:50:01.913Z,23.43
2022-08-07T21:52:38.572Z,23.43
2022-08-07T21:55:42.685Z,23.49
2022-08-07T21:58:32.151Z,23.52
2022-08-07T22:01:16.491Z,23.38
2022-08-07T22:03:49.288Z,23.37
2022-08-07T22:06:30.457Z,23.28
2022-08-07T22:09:07.996Z,23.16
2022-08-07T22:11:53.317Z,23.18
2022-08-07T22:14:37.517Z,23.11
2022-08-07T22:17:16.261Z,23.19
2022-08-07T22:20:07.448Z,23.34
2022-08-07T22:22:44.939Z,23.33
2022-08-07T22:25:36.316Z,23.38
2022-08-07T22:28:31.279Z,23.38
2022-08-07T22:31:06.883Z,23.31
2022-08-07T22:33:56.608Z,23.42
2022-08-07T22:36:48.653Z,23.50
2022-08-07T22:39:35.327Z,23.56
2022-08-07T22:42:33.769Z,23.58
2022-08-07T22:45:04.083Z,23.57
2022-08-07T22:48:31.659Z,23.64
2022-08-07T22:51:12.440Z,23.73
2022-08-07T22:54:15.038Z,23.80
2022-08-07T22:57:17.097Z,23.77
2022-08-07T22:59:56.666Z,23.81
2022-08-07T23:02:41.905Z,23.75
2022-08-07T23:06:09.991Z,23.61
2022-08-07T23:08:54.574Z,23.46
2022-08-07T23:11:25.339Z,23.42
2022-08-07T23:14:20.725Z,23.34
2022-08-07T23:17:26.431Z,23.37
2022-08-07T23:20:52.392Z,23.43
2022-08-07T23:24:04.237Z,23.48
2022-08-07T23:26:50.046Z,23.56
2022-08-07T23:29:43.745Z,23.57
2022-08-07T23:34:19.954Z,23.60
2022-08-07T23:35:23.522Z,23.56
2022-08-07T23:38:36.948Z,23.57
2022-08-07T23:41:33.639Z,23.54
2022-08-07T23:44:03.414Z,23.54
2022-08-07T23:46:56.448Z,23.54
2022-08-07T23:49:57.100Z,23.56
2022-08-07T23:53:05.924Z,23.59
2022-08-07T23:55:57.711Z,23.64
2022-08-07T23:58:46.374Z,23.67
